KLM57D EHAM-EDDF
Flight info
| Callsign | KLM57D |
|---|---|
| Flight time | N/A |
| Altitude | 33000 |
| Route | EDUPO Z739 MISGO/N0408F230 T911 TANJO DCT ASBON DCT ROLIS ROLIS5A |
| Aircraft | E75L/M-SDE3GILORVW/S |
Departure
| Time | N/A |
|---|---|
| Airport | Amsterdam Airport Schiphol (EHAM) |
Arrival
| Time | 2026-05-06 12:13 |
|---|---|
| Airport | Frankfurt Main Airport (EDDF) |
| Time | Latitude | Longitude | Altitude | Speed | Heading |
|---|---|---|---|---|---|
| 2026-05-06 12:12 | 50.03564 | 8.52368 | 351 ft | 4 kts | 73° |
| 2026-05-06 12:13 | 50.03581 | 8.52439 | 351 ft | 9 kts | 69° |
| 2026-05-06 12:13 | 50.03598 | 8.52550 | 351 ft | 12 kts | 88° |
| 2026-05-06 12:13 | 50.03612 | 8.52703 | 351 ft | 16 kts | 69° |
| 2026-05-06 12:13 | 50.03619 | 8.52870 | 351 ft | 16 kts | 146° |
| 2026-05-06 12:14 | 50.03597 | 8.53017 | 351 ft | 16 kts | 68° |
| 2026-05-06 12:14 | 50.03638 | 8.53190 | 351 ft | 17 kts | 70° |
| 2026-05-06 12:14 | 50.03682 | 8.53375 | 351 ft | 18 kts | 71° |
| 2026-05-06 12:14 | 50.03709 | 8.53527 | 351 ft | 13 kts | 103° |
| 2026-05-06 12:15 | 50.03657 | 8.53637 | 351 ft | 12 kts | 83° |
| 2026-05-06 12:15 | 50.03693 | 8.53769 | 351 ft | 13 kts | 71° |
| 2026-05-06 12:15 | 50.03727 | 8.53913 | 351 ft | 14 kts | 69° |
| 2026-05-06 12:15 | 50.03766 | 8.54072 | 351 ft | 16 kts | 70° |
| 2026-05-06 12:16 | 50.03805 | 8.54242 | 351 ft | 17 kts | 71° |
| 2026-05-06 12:16 | 50.03765 | 8.54363 | 351 ft | 14 kts | 162° |
| 2026-05-06 12:16 | 50.03696 | 8.54456 | 351 ft | 14 kts | 87° |
| 2026-05-06 12:16 | 50.03730 | 8.54609 | 351 ft | 15 kts | 70° |
| 2026-05-06 12:17 | 50.03767 | 8.54773 | 351 ft | 16 kts | 71° |
| 2026-05-06 12:17 | 50.03809 | 8.54944 | 351 ft | 17 kts | 70° |
| 2026-05-06 12:17 | 50.03853 | 8.55127 | 351 ft | 18 kts | 69° |
| 2026-05-06 12:17 | 50.03899 | 8.55321 | 351 ft | 19 kts | 68° |
| 2026-05-06 12:18 | 50.03949 | 8.55522 | 351 ft | 20 kts | 68° |
| 2026-05-06 12:18 | 50.03999 | 8.55733 | 352 ft | 21 kts | 70° |
| 2026-05-06 12:18 | 50.04052 | 8.55953 | 352 ft | 22 kts | 70° |
| 2026-05-06 12:18 | 50.04107 | 8.56183 | 351 ft | 23 kts | 70° |
| 2026-05-06 12:19 | 50.04165 | 8.56423 | 352 ft | 23 kts | 67° |
| 2026-05-06 12:19 | 50.04221 | 8.56670 | 352 ft | 24 kts | 68° |
| 2026-05-06 12:19 | 50.04253 | 8.56792 | 352 ft | 0 kts | 69° |
| 2026-05-06 12:20 | 50.04254 | 8.56794 | 352 ft | 1 kts | 69° |
| 2026-05-06 12:20 | 50.04262 | 8.56827 | 352 ft | 5 kts | 69° |
| 2026-05-06 12:20 | 50.04280 | 8.56898 | 352 ft | 8 kts | 69° |
| 2026-05-06 12:20 | 50.04305 | 8.57014 | 352 ft | 15 kts | 73° |
| 2026-05-06 12:21 | 50.04348 | 8.57188 | 352 ft | 17 kts | 70° |
| 2026-05-06 12:21 | 50.04390 | 8.57373 | 352 ft | 19 kts | 71° |
| 2026-05-06 12:21 | 50.04440 | 8.57569 | 352 ft | 19 kts | 70° |
| 2026-05-06 12:21 | 50.04487 | 8.57779 | 352 ft | 20 kts | 71° |
| 2026-05-06 12:22 | 50.04540 | 8.57994 | 352 ft | 18 kts | 71° |
| 2026-05-06 12:22 | 50.04584 | 8.58178 | 352 ft | 17 kts | 69° |
| 2026-05-06 12:22 | 50.04621 | 8.58336 | 352 ft | 14 kts | 70° |
| 2026-05-06 12:22 | 50.04630 | 8.58370 | 352 ft | 0 kts | 71° |
| 2026-05-06 12:23 | 50.04630 | 8.58375 | 352 ft | 1 kts | 71° |
| 2026-05-06 12:23 | 50.04640 | 8.58415 | 352 ft | 6 kts | 71° |
| 2026-05-06 12:23 | 50.04659 | 8.58499 | 352 ft | 10 kts | 70° |
| 2026-05-06 12:23 | 50.04689 | 8.58621 | 352 ft | 13 kts | 70° |
| 2026-05-06 12:24 | 50.04731 | 8.58745 | 352 ft | 10 kts | 40° |
| 2026-05-06 12:24 | 50.04813 | 8.58728 | 352 ft | 14 kts | 340° |
| 2026-05-06 12:24 | 50.04905 | 8.58676 | 352 ft | 13 kts | 339° |
| 2026-05-06 12:24 | 50.04947 | 8.58642 | 352 ft | 7 kts | 317° |
| 2026-05-06 12:25 | 50.04955 | 8.58587 | 352 ft | 4 kts | 270° |
| 2026-05-06 12:25 | 50.04982 | 8.58558 | 352 ft | 4 kts | 339° |
| 2026-05-06 12:25 | 50.05011 | 8.58542 | 352 ft | 4 kts | 339° |
| 2026-05-06 12:25 | 50.05030 | 8.58531 | 352 ft | 1 kts | 339° |
| 2026-05-06 12:26 | 50.05035 | 8.58527 | 352 ft | 0 kts | 339° |